createdAt,value
2022-12-19T00:00:14.728Z,-2.1
2022-12-19T00:05:11.398Z,-2.1
2022-12-19T00:10:11.387Z,-2.1
2022-12-19T00:15:11.401Z,-2.1
2022-12-19T00:20:11.504Z,-2.1
2022-12-19T00:25:11.400Z,-2.1
2022-12-19T00:30:11.397Z,-2.1
2022-12-19T00:35:11.388Z,-2
2022-12-19T00:40:11.508Z,-2
2022-12-19T00:45:11.413Z,-1.9
2022-12-19T00:50:11.399Z,-2
2022-12-19T00:55:14.187Z,-1.9
2022-12-19T01:00:11.525Z,-1.9
2022-12-19T01:05:11.409Z,-1.9
2022-12-19T01:10:11.392Z,-1.9
2022-12-19T01:15:11.666Z,-1.9
2022-12-19T01:20:11.513Z,-1.9
2022-12-19T01:25:11.399Z,-1.9
2022-12-19T01:30:11.390Z,-1.9
2022-12-19T01:35:20.822Z,-1.8
2022-12-19T01:40:11.509Z,-1.8
2022-12-19T01:45:13.937Z,-1.8
2022-12-19T01:50:11.411Z,-1.7
2022-12-19T01:55:11.415Z,-1.7
2022-12-19T02:00:11.518Z,-1.7
2022-12-19T02:05:11.393Z,-1.7
2022-12-19T02:10:11.386Z,-1.6
2022-12-19T02:15:11.532Z,-1.6
2022-12-19T02:20:11.500Z,-1.6
2022-12-19T02:25:11.391Z,-1.6
2022-12-19T02:30:11.436Z,-1.6
2022-12-19T02:35:11.554Z,-1.7
2022-12-19T02:40:11.518Z,-1.7
2022-12-19T02:45:11.400Z,-1.7
2022-12-19T02:50:11.413Z,-1.7
2022-12-19T02:55:11.424Z,-1.7
2022-12-19T03:00:11.525Z,-1.7
2022-12-19T03:05:11.415Z,-1.7
2022-12-19T03:10:11.420Z,-1.7
2022-12-19T03:15:11.602Z,-1.6
2022-12-19T03:20:11.529Z,-1.7
2022-12-19T03:25:11.423Z,-1.7
2022-12-19T03:30:11.412Z,-1.7
2022-12-19T03:35:11.433Z,-1.6
2022-12-19T03:40:11.543Z,-1.5
2022-12-19T03:45:11.445Z,-1.5
2022-12-19T03:50:11.452Z,-1.5
2022-12-19T03:55:11.498Z,-1.4
2022-12-19T04:00:11.558Z,-1.4
2022-12-19T04:05:11.508Z,-1.4
2022-12-19T04:10:11.436Z,-1.4
2022-12-19T04:15:11.484Z,-1.3
2022-12-19T04:20:11.563Z,-1.4
2022-12-19T04:25:11.443Z,-1.3
2022-12-19T04:30:11.442Z,-1.3
2022-12-19T04:35:11.456Z,-1.3
2022-12-19T04:40:11.560Z,-1.3
2022-12-19T04:45:11.447Z,-1.3
2022-12-19T04:50:11.473Z,-1.3
2022-12-19T04:55:11.490Z,-1.3
2022-12-19T05:00:11.612Z,-1.3
2022-12-19T05:05:11.470Z,-1.3
2022-12-19T05:10:11.475Z,-1.2
2022-12-19T05:15:11.657Z,-1.2
2022-12-19T05:20:11.572Z,-1.2
2022-12-19T05:25:11.469Z,-1.2
2022-12-19T05:30:11.470Z,-1.2
2022-12-19T05:35:11.485Z,-1.2
2022-12-19T05:40:11.588Z,-1.2
2022-12-19T05:45:11.475Z,-1.1
2022-12-19T05:50:11.484Z,-1.2
2022-12-19T05:55:11.472Z,-1.2
2022-12-19T06:00:11.596Z,-1.2
2022-12-19T06:05:11.480Z,-1.1
2022-12-19T06:10:11.474Z,-1.1
2022-12-19T06:15:11.526Z,-1.1
2022-12-19T06:20:11.584Z,-1.1
2022-12-19T06:25:11.485Z,-1
2022-12-19T06:30:11.480Z,-1
2022-12-19T06:35:11.490Z,-0.9
2022-12-19T06:40:11.592Z,-0.9
2022-12-19T06:45:11.548Z,-1
2022-12-19T06:50:11.544Z,-1
2022-12-19T06:55:11.605Z,-1
2022-12-19T07:00:11.845Z,-0.9
2022-12-19T07:05:11.712Z,-0.9
2022-12-19T07:10:11.712Z,-0.9
2022-12-19T07:15:11.783Z,-0.9
2022-12-19T07:20:11.913Z,-0.8
2022-12-19T07:25:11.770Z,-0.8
2022-12-19T07:30:11.797Z,-0.7
2022-12-19T07:35:11.770Z,-0.6
2022-12-19T07:40:11.904Z,-0.6
2022-12-19T07:45:11.768Z,-0.5
2022-12-19T07:50:11.807Z,-0.5
2022-12-19T07:55:11.818Z,-0.5
2022-12-19T08:00:11.937Z,-0.4
2022-12-19T08:05:11.768Z,-0.4
2022-12-19T08:10:11.773Z,-0.4
2022-12-19T08:15:11.787Z,-0.3
2022-12-19T08:20:11.917Z,-0.3
2022-12-19T08:25:11.804Z,-0.2
2022-12-19T08:30:11.765Z,-0.2
2022-12-19T08:35:11.770Z,-0.2
2022-12-19T08:40:11.883Z,-0.1
2022-12-19T08:45:11.799Z,-0.1
2022-12-19T08:50:11.843Z,-0.1
2022-12-19T08:55:11.832Z,-0.1
2022-12-19T09:00:11.934Z,0
2022-12-19T09:05:59.225Z,0.1
2022-12-19T09:10:11.808Z,0.1
2022-12-19T09:15:11.849Z,0.2
2022-12-19T09:20:11.841Z,0.2
2022-12-19T09:25:11.913Z,0.2
2022-12-19T09:30:11.902Z,0.2
2022-12-19T09:35:13.502Z,0.3
2022-12-19T09:40:12.043Z,0.4
2022-12-19T09:45:14.599Z,0.4
2022-12-19T09:50:12.101Z,0.4
2022-12-19T09:55:12.145Z,0.5
2022-12-19T10:00:12.297Z,0.5
2022-12-19T10:05:15.105Z,0.6
2022-12-19T10:10:29.293Z,0.6
2022-12-19T10:15:12.166Z,0.7
2022-12-19T10:20:12.138Z,0.8
2022-12-19T10:25:12.137Z,0.9
2022-12-19T10:30:12.387Z,0.9
2022-12-19T10:35:12.304Z,0.9
2022-12-19T10:40:17.572Z,1
2022-12-19T10:45:12.114Z,1.1
2022-12-19T10:50:12.145Z,1.2
2022-12-19T10:55:12.134Z,1.3
2022-12-19T11:00:12.354Z,1.4
2022-12-19T11:05:12.166Z,1.5
2022-12-19T11:10:46.980Z,1.5
2022-12-19T11:16:43.204Z,1.6
2022-12-19T11:25:39.331Z,1.7
2022-12-19T11:30:23.501Z,1.7
2022-12-19T11:35:12.138Z,1.8
2022-12-19T11:40:12.232Z,1.9
2022-12-19T11:45:12.122Z,1.9
2022-12-19T11:50:12.127Z,2
2022-12-19T11:55:12.121Z,2
2022-12-19T12:00:12.244Z,2
2022-12-19T12:05:12.123Z,2.1
2022-12-19T12:10:40.972Z,2.1
2022-12-19T12:18:24.279Z,2.1
2022-12-19T12:25:07.043Z,2.2
2022-12-19T12:31:33.255Z,2.2
2022-12-19T12:31:37.839Z,2.2
2022-12-19T12:36:49.574Z,2.2
2022-12-19T12:40:12.222Z,2.3
2022-12-19T12:45:12.190Z,2.3
2022-12-19T12:50:12.220Z,2.3
2022-12-19T12:55:12.243Z,2.4
2022-12-19T13:00:12.254Z,2.4
2022-12-19T13:05:12.233Z,2.5
2022-12-19T13:10:12.259Z,2.5
2022-12-19T13:15:12.270Z,2.5
2022-12-19T13:20:12.476Z,2.5
2022-12-19T13:25:12.338Z,2.6
2022-12-19T13:30:12.302Z,2.6
2022-12-19T13:35:42.380Z,2.7
2022-12-19T13:40:14.223Z,2.7
2022-12-19T13:45:12.383Z,2.7
2022-12-19T13:50:12.397Z,2.7
2022-12-19T13:55:12.436Z,2.7
2022-12-19T14:00:12.488Z,2.7
2022-12-19T14:05:12.512Z,2.8
2022-12-19T14:11:26.912Z,2.8
2022-12-19T14:15:13.929Z,2.9
2022-12-19T14:20:33.298Z,2.9
2022-12-19T14:26:06.000Z,2.9
2022-12-19T14:30:29.428Z,3
2022-12-19T14:35:55.399Z,3
2022-12-19T14:40:12.665Z,3.1
2022-12-19T14:51:00.409Z,3.1
2022-12-19T14:52:11.763Z,3.1
2022-12-19T14:55:36.204Z,3.1
2022-12-19T15:00:17.759Z,3.2
2022-12-19T15:05:12.687Z,3.2
2022-12-19T15:11:01.330Z,3.2
2022-12-19T15:15:12.698Z,3.3
2022-12-19T15:20:12.746Z,3.3
2022-12-19T15:25:28.750Z,3.3
2022-12-19T15:30:12.759Z,3.3
2022-12-19T15:35:13.125Z,3.5
2022-12-19T15:40:12.827Z,3.5
2022-12-19T15:45:12.956Z,3.6
2022-12-19T15:50:12.817Z,3.7
2022-12-19T15:55:13.039Z,3.7
2022-12-19T16:00:12.890Z,3.8
2022-12-19T16:05:12.972Z,3.8
2022-12-19T16:10:12.876Z,3.8
2022-12-19T16:15:12.881Z,3.9
2022-12-19T16:20:12.925Z,4
2022-12-19T16:25:12.933Z,4
2022-12-19T16:30:16.649Z,4.1
2022-12-19T16:35:12.963Z,4.1
2022-12-19T16:40:13.061Z,4.1
2022-12-19T16:45:13.086Z,4.2
2022-12-19T16:50:13.014Z,4.2
2022-12-19T16:55:13.060Z,4.2
2022-12-19T17:00:13.041Z,4.3
2022-12-19T17:05:13.050Z,4.3
2022-12-19T17:10:13.078Z,4.4
2022-12-19T17:15:13.109Z,4.4
2022-12-19T17:20:13.102Z,4.4
2022-12-19T17:25:13.145Z,4.5
2022-12-19T17:30:13.238Z,4.5
2022-12-19T17:35:13.124Z,4.6
2022-12-19T17:40:13.243Z,4.6
2022-12-19T17:45:13.237Z,4.6
2022-12-19T17:50:13.137Z,4.6
2022-12-19T17:55:14.212Z,4.6
2022-12-19T18:00:13.245Z,4.7
2022-12-19T18:05:13.140Z,4.7
2022-12-19T18:10:13.124Z,4.8
2022-12-19T18:15:13.238Z,4.8
2022-12-19T18:20:13.200Z,4.8
2022-12-19T18:25:13.198Z,4.9
2022-12-19T18:30:13.128Z,4.9
2022-12-19T18:35:13.125Z,4.9
2022-12-19T18:40:19.516Z,4.9
2022-12-19T18:45:13.128Z,4.9
2022-12-19T18:50:13.144Z,4.9
2022-12-19T18:55:13.148Z,5
2022-12-19T19:00:13.163Z,5.1
2022-12-19T19:05:13.123Z,5.1
2022-12-19T19:10:13.140Z,5.1
2022-12-19T19:15:13.151Z,5.1
2022-12-19T19:20:13.187Z,5.2
2022-12-19T19:25:13.152Z,5.2
2022-12-19T19:30:13.151Z,5.3
2022-12-19T19:35:13.127Z,5.3
2022-12-19T19:40:13.174Z,5.3
2022-12-19T19:45:13.122Z,5.4
2022-12-19T19:50:13.162Z,5.4
2022-12-19T19:55:13.121Z,5.5
2022-12-19T20:00:13.144Z,5.4
2022-12-19T20:05:13.123Z,5.5
2022-12-19T20:10:13.128Z,5.5
2022-12-19T20:15:13.253Z,5.5
2022-12-19T20:20:13.169Z,5.6
2022-12-19T20:25:13.121Z,5.6
2022-12-19T20:30:13.148Z,5.6
2022-12-19T20:35:14.935Z,5.7
2022-12-19T20:40:13.182Z,5.6
2022-12-19T20:45:13.140Z,5.7
2022-12-19T20:50:13.154Z,5.7
2022-12-19T20:55:13.134Z,5.7
2022-12-19T21:00:13.131Z,5.7
2022-12-19T21:05:13.114Z,5.7
2022-12-19T21:10:13.130Z,5.6
2022-12-19T21:15:13.097Z,5.7
2022-12-19T21:20:13.133Z,5.6
2022-12-19T21:25:13.116Z,5.6
2022-12-19T21:30:13.102Z,5.6
2022-12-19T21:35:13.130Z,5.6
2022-12-19T21:40:13.130Z,5.6
2022-12-19T21:45:13.132Z,5.6
2022-12-19T21:50:13.239Z,5.6
2022-12-19T21:55:13.089Z,5.6
2022-12-19T22:00:13.229Z,5.6
2022-12-19T22:05:13.093Z,5.6
2022-12-19T22:10:13.250Z,5.6
2022-12-19T22:15:13.119Z,5.6
2022-12-19T22:20:13.147Z,5.5
2022-12-19T22:25:13.107Z,5.5
2022-12-19T22:30:13.105Z,5.5
2022-12-19T22:35:13.131Z,5.5
2022-12-19T22:40:13.119Z,5.6
2022-12-19T22:45:13.082Z,5.6
2022-12-19T22:50:13.122Z,5.6
2022-12-19T22:55:13.125Z,5.7
2022-12-19T23:00:13.143Z,5.6
2022-12-19T23:05:13.089Z,5.7
2022-12-19T23:10:13.102Z,5.6
2022-12-19T23:15:13.131Z,5.6
2022-12-19T23:20:13.107Z,5.6
2022-12-19T23:25:13.093Z,5.6
2022-12-19T23:30:13.098Z,5.6
2022-12-19T23:35:13.099Z,5.6
2022-12-19T23:40:13.240Z,5.6
2022-12-19T23:45:13.079Z,5.6
2022-12-19T23:50:13.223Z,5.7
2022-12-19T23:55:13.091Z,5.7
